Time;durP1;ratioP1;P1;durP2;ratioP2;P2;SDS_P1;SDS_P2;PMS_P1;PMS_P2;Temp;Humidity;BMP_temperature;BMP_pressure;BME280_temperature;BME280_humidity;BME280_pressure;Samples;Min_cycle;Max_cycle;Signal;HPM_P1;HPM_P2
2022/02/13 00:00:10;;;;;;;3.17;1.13;;;11.20;68.90;;;;;;5127649;28;20031;-75
2022/02/13 00:02:42;;;;;;;4.13;1.35;;;11.20;68.90;;;;;;5128482;27;20023;-75
2022/02/13 00:05:08;;;;;;;2.47;1.20;;;11.20;69.00;;;;;;5127869;28;20066;-75
2022/02/13 00:07:35;;;;;;;1.73;1.02;;;11.30;69.20;;;;;;5126961;27;20084;-76
2022/02/13 00:10:04;;;;;;;2.65;1.10;;;11.20;69.00;;;;;;5127843;28;20035;-75
2022/02/13 00:12:31;;;;;;;2.35;1.10;;;11.20;69.10;;;;;;5127865;28;20043;-75
2022/02/13 00:14:56;;;;;;;2.25;1.05;;;11.20;69.00;;;;;;5126480;28;20038;-75
2022/02/13 00:17:23;;;;;;;3.38;1.33;;;11.20;69.00;;;;;;5126831;28;20035;-75
2022/02/13 00:19:50;;;;;;;2.83;1.35;;;11.30;69.20;;;;;;5126389;27;20031;-75
2022/02/13 00:22:17;;;;;;;1.52;0.75;;;11.30;69.20;;;;;;5128212;27;20058;-75
2022/02/13 00:24:44;;;;;;;2.72;1.05;;;11.20;69.00;;;;;;5127875;27;20031;-74
2022/02/13 00:27:11;;;;;;;3.45;1.33;;;11.30;69.20;;;;;;5128131;28;20038;-75
2022/02/13 00:29:39;;;;;;;1.90;1.20;;;11.30;69.20;;;;;;5126747;28;20086;-75
2022/02/13 00:32:06;;;;;;;3.58;1.20;;;11.30;69.20;;;;;;5126234;27;20532;-74
2022/02/13 00:34:32;;;;;;;3.28;1.00;;;11.30;69.20;;;;;;5128204;28;20023;-74
2022/02/13 00:37:00;;;;;;;1.50;1.10;;;11.30;69.20;;;;;;5109443;28;20020;-75
2022/02/13 00:39:29;;;;;;;2.28;1.05;;;11.30;69.20;;;;;;5128242;27;20038;-75
2022/02/13 00:41:56;;;;;;;3.05;1.30;;;11.30;69.20;;;;;;5133221;27;20028;-75
2022/02/13 00:44:24;;;;;;;3.80;1.00;;;11.30;69.30;;;;;;5132271;27;20789;-75
2022/02/13 00:46:50;;;;;;;2.63;1.23;;;11.30;69.30;;;;;;5130653;27;20099;-75
2022/02/13 00:49:16;;;;;;;3.42;1.10;;;11.20;69.20;;;;;;5129711;27;20130;-74
2022/02/13 00:51:42;;;;;;;4.35;0.93;;;11.30;69.40;;;;;;5131636;27;20126;-74
2022/02/13 00:54:08;;;;;;;2.00;1.20;;;11.30;69.40;;;;;;5129694;27;20047;-75
2022/02/13 00:56:34;;;;;;;2.28;0.95;;;11.30;69.40;;;;;;5131386;27;20023;-76
2022/02/13 00:59:00;;;;;;;2.67;1.58;;;11.30;69.50;;;;;;5130293;27;20385;-76
2022/02/13 01:01:26;;;;;;;3.90;1.65;;;11.30;69.50;;;;;;5130694;27;20027;-75
2022/02/13 01:03:54;;;;;;;2.00;1.00;;;11.30;69.50;;;;;;5131054;27;20039;-75
2022/02/13 01:06:20;;;;;;;4.32;1.13;;;11.30;69.70;;;;;;5130841;27;20473;-75
2022/02/13 01:08:46;;;;;;;2.83;1.10;;;11.30;69.50;;;;;;5131002;27;20044;-74
2022/02/13 01:11:12;;;;;;;3.00;1.38;;;11.30;69.50;;;;;;5131733;27;20034;-76
2022/02/13 01:13:38;;;;;;;1.00;0.80;;;11.30;69.50;;;;;;5129575;27;20032;-76
2022/02/13 01:16:04;;;;;;;4.15;1.00;;;11.40;69.60;;;;;;5130818;27;20023;-75
2022/02/13 01:18:30;;;;;;;4.13;2.22;;;11.40;69.60;;;;;;5130802;27;20073;-75
2022/02/13 01:20:57;;;;;;;2.20;1.00;;;11.40;69.60;;;;;;5130667;27;20033;-75
2022/02/13 01:23:23;;;;;;;3.13;1.40;;;11.40;69.60;;;;;;5129873;27;20126;-75
2022/02/13 01:25:49;;;;;;;2.10;1.05;;;11.40;69.60;;;;;;5130793;27;20023;-75
2022/02/13 01:28:15;;;;;;;2.08;1.45;;;11.40;69.70;;;;;;5130652;27;20027;-75
2022/02/13 01:30:41;;;;;;;2.17;1.10;;;11.40;69.70;;;;;;5131560;27;20437;-76
2022/02/13 01:33:07;;;;;;;2.67;1.00;;;11.40;69.70;;;;;;5131216;27;20461;-75
2022/02/13 01:35:33;;;;;;;2.70;1.08;;;11.40;69.80;;;;;;5131112;27;20027;-75
2022/02/13 01:37:59;;;;;;;2.70;1.42;;;11.40;69.70;;;;;;5130499;27;20031;-75
2022/02/13 01:40:25;;;;;;;2.50;1.05;;;11.30;70.10;;;;;;5129320;27;20023;-75
2022/02/13 01:42:52;;;;;;;3.67;1.02;;;11.40;69.80;;;;;;5130814;27;20035;-75
2022/02/13 01:45:18;;;;;;;3.65;1.02;;;11.40;69.80;;;;;;5130248;27;20027;-74
2022/02/13 01:47:44;;;;;;;2.22;1.20;;;11.40;69.90;;;;;;5130676;27;20485;-75
2022/02/13 01:50:11;;;;;;;1.65;0.75;;;11.30;69.70;;;;;;5130610;27;20470;-76
2022/02/13 01:52:38;;;;;;;1.95;0.95;;;11.40;69.90;;;;;;5130352;27;20387;-76
2022/02/13 01:55:05;;;;;;;3.92;1.17;;;11.40;69.90;;;;;;5130300;27;20474;-76
2022/02/13 01:57:32;;;;;;;3.65;1.10;;;11.30;69.70;;;;;;5128928;27;20027;-75
2022/02/13 01:59:59;;;;;;;1.83;1.05;;;11.40;69.90;;;;;;5129790;27;20031;-76
2022/02/13 02:02:25;;;;;;;6.20;1.58;;;11.40;69.90;;;;;;5128512;27;20038;-75
2022/02/13 02:04:53;;;;;;;2.15;1.00;;;11.40;69.90;;;;;;5111491;27;20031;-75
2022/02/13 02:07:20;;;;;;;1.38;0.95;;;11.40;69.90;;;;;;5128689;27;20095;-75
2022/02/13 02:09:50;;;;;;;4.10;1.15;;;11.40;69.90;;;;;;5129612;27;20019;-75
2022/02/13 02:12:16;;;;;;;2.35;0.98;;;11.40;69.80;;;;;;5131203;27;20125;-75
2022/02/13 02:14:42;;;;;;;3.13;1.50;;;11.40;69.80;;;;;;5132535;27;20035;-76
2022/02/13 02:17:08;;;;;;;2.28;1.10;;;11.40;69.80;;;;;;5131021;27;20069;-75
2022/02/13 02:19:36;;;;;;;4.38;1.10;;;11.40;69.90;;;;;;5131290;27;20038;-74
2022/02/13 02:22:06;;;;;;;2.65;1.40;;;11.40;69.80;;;;;;5129699;27;20065;-75
2022/02/13 02:24:32;;;;;;;2.50;1.00;;;11.40;69.90;;;;;;5129676;27;20132;-74
2022/02/13 02:27:00;;;;;;;3.08;1.23;;;11.40;69.90;;;;;;5130608;27;20050;-74
2022/02/13 02:29:27;;;;;;;2.72;1.05;;;11.40;69.90;;;;;;5129135;27;20039;-74
2022/02/13 02:31:53;;;;;;;2.08;1.00;;;11.40;69.90;;;;;;5130214;27;20061;-75
2022/02/13 02:34:20;;;;;;;1.83;0.77;;;11.40;69.90;;;;;;5129468;27;20220;-74
2022/02/13 02:36:46;;;;;;;2.60;0.90;;;11.40;70.00;;;;;;5128165;27;20678;-75
2022/02/13 02:39:12;;;;;;;3.38;1.08;;;11.40;70.00;;;;;;5127842;27;20027;-74
2022/02/13 02:41:38;;;;;;;1.40;1.10;;;11.40;70.00;;;;;;5129602;27;20038;-75
2022/02/13 02:44:05;;;;;;;2.25;1.10;;;11.40;70.00;;;;;;5129082;27;20035;-75
2022/02/13 02:46:31;;;;;;;3.17;1.20;;;11.40;70.10;;;;;;5129276;22;20052;-77
2022/02/13 02:48:58;;;;;;;3.50;0.90;;;11.40;70.10;;;;;;5111786;28;20043;-77
2022/02/13 02:51:24;;;;;;;4.38;1.20;;;11.40;70.10;;;;;;5111874;28;20042;-77
2022/02/13 02:53:50;;;;;;;4.07;1.20;;;11.40;70.10;;;;;;5093097;28;20422;-76
2022/02/13 02:56:16;;;;;;;2.75;1.30;;;11.40;70.10;;;;;;5093834;28;20076;-77
2022/02/13 02:58:42;;;;;;;2.30;1.00;;;11.40;70.00;;;;;;5111816;28;20023;-76
2022/02/13 03:01:08;;;;;;;5.03;1.15;;;11.40;70.00;;;;;;5111473;28;20057;-77
2022/02/13 03:03:35;;;;;;;3.13;1.42;;;11.40;70.00;;;;;;5110960;28;20027;-76
2022/02/13 03:06:02;;;;;;;3.30;0.93;;;11.40;70.00;;;;;;5111195;28;20023;-77
2022/02/13 03:08:29;;;;;;;5.10;1.77;;;11.40;70.00;;;;;;5111385;28;20433;-77
2022/02/13 03:10:55;;;;;;;4.88;1.75;;;11.40;70.00;;;;;;5111900;28;20024;-78
2022/02/13 03:13:22;;;;;;;3.28;1.02;;;11.40;70.00;;;;;;5094270;28;20123;-77
2022/02/13 03:15:49;;;;;;;3.13;1.10;;;11.40;70.00;;;;;;5111433;28;20448;-77
2022/02/13 03:18:18;;;;;;;3.55;1.13;;;11.50;70.20;;;;;;5076295;28;20031;-77
2022/02/13 03:20:46;;;;;;;4.18;1.20;;;11.50;70.30;;;;;;5111526;28;20058;-76
2022/02/13 03:23:13;;;;;;;3.88;1.08;;;11.40;70.10;;;;;;5093110;28;20125;-77
2022/02/13 03:25:39;;;;;;;4.15;1.27;;;11.40;70.10;;;;;;5092887;28;20035;-78
2022/02/13 03:28:06;;;;;;;3.40;1.30;;;11.40;70.10;;;;;;5111649;28;20023;-77
2022/02/13 03:30:32;;;;;;;3.17;1.27;;;11.40;70.10;;;;;;5111291;28;20032;-77
2022/02/13 03:32:59;;;;;;;4.30;1.27;;;11.40;70.10;;;;;;5092503;28;20439;-76
2022/02/13 03:35:25;;;;;;;4.45;1.45;;;11.40;70.10;;;;;;5111124;28;20395;-77
2022/02/13 03:37:51;;;;;;;2.85;1.25;;;11.40;70.10;;;;;;5110852;28;20498;-76
2022/02/13 03:40:18;;;;;;;2.67;1.00;;;11.40;70.20;;;;;;5093297;28;20482;-77
2022/02/13 03:42:44;;;;;;;5.50;1.30;;;11.40;70.20;;;;;;5093923;28;20401;-77
2022/02/13 03:45:11;;;;;;;3.35;1.35;;;11.40;70.20;;;;;;5111747;28;20482;-76
2022/02/13 03:47:37;;;;;;;4.15;1.42;;;11.40;70.20;;;;;;5111641;28;20176;-76
2022/02/13 03:50:04;;;;;;;4.03;1.00;;;11.40;70.20;;;;;;5111113;28;20515;-76
2022/02/13 03:52:30;;;;;;;3.83;1.50;;;11.40;70.10;;;;;;5111204;28;20043;-77
2022/02/13 03:54:56;;;;;;;3.33;1.98;;;11.40;70.10;;;;;;5092930;28;20028;-77
2022/02/13 03:57:22;;;;;;;6.65;1.85;;;11.40;70.20;;;;;;5111667;28;20031;-77
2022/02/13 03:59:48;;;;;;;4.63;1.80;;;11.40;70.20;;;;;;5110927;28;20035;-77
2022/02/13 04:02:14;;;;;;;3.20;1.50;;;11.40;70.20;;;;;;5092947;28;20020;-77
2022/02/13 04:04:40;;;;;;;4.07;1.77;;;11.40;70.70;;;;;;5092417;28;20088;-77
2022/02/13 04:07:06;;;;;;;3.80;1.40;;;11.40;70.10;;;;;;5110766;28;20072;-77
2022/02/13 04:09:33;;;;;;;4.15;1.20;;;11.40;70.10;;;;;;5111143;28;20173;-77
2022/02/13 04:11:58;;;;;;;3.53;1.35;;;11.40;70.20;;;;;;5092870;28;20035;-77
2022/02/13 04:14:24;;;;;;;5.30;1.50;;;11.40;70.10;;;;;;5110499;28;20039;-78
2022/02/13 04:16:51;;;;;;;6.35;1.50;;;11.40;70.20;;;;;;5115007;28;20019;-78
2022/02/13 04:19:17;;;;;;;5.00;1.58;;;11.40;70.20;;;;;;5116919;28;20146;-78
2022/02/13 04:21:43;;;;;;;4.78;1.30;;;11.40;70.20;;;;;;5099087;28;20088;-77
2022/02/13 04:24:09;;;;;;;3.05;1.30;;;11.40;70.20;;;;;;5098358;28;20494;-77
2022/02/13 04:26:35;;;;;;;3.65;1.85;;;11.30;70.10;;;;;;5117083;28;20118;-77
2022/02/13 04:29:01;;;;;;;5.60;2.00;;;11.40;70.30;;;;;;5097490;28;20053;-77
2022/02/13 04:31:27;;;;;;;3.97;1.38;;;11.40;70.30;;;;;;5097134;28;20054;-77
2022/02/13 04:33:53;;;;;;;4.22;1.38;;;11.30;70.10;;;;;;5114747;28;20130;-77
2022/02/13 04:36:19;;;;;;;5.05;1.30;;;11.30;70.10;;;;;;5096391;28;20066;-77
2022/02/13 04:38:45;;;;;;;5.90;1.95;;;11.30;70.10;;;;;;5096588;28;20032;-77
2022/02/13 04:41:11;;;;;;;3.63;1.42;;;11.30;70.10;;;;;;5096689;28;20024;-77
2022/02/13 04:43:37;;;;;;;4.55;1.48;;;11.30;70.10;;;;;;5114579;28;20071;-77
2022/02/13 04:46:03;;;;;;;6.63;2.22;;;11.30;70.10;;;;;;5114341;28;20039;-77
2022/02/13 04:48:29;;;;;;;6.20;1.67;;;11.30;70.10;;;;;;5095781;28;20120;-78
2022/02/13 04:50:56;;;;;;;5.10;1.73;;;11.30;70.10;;;;;;5095918;28;20032;-77
2022/02/13 04:53:22;;;;;;;5.93;1.65;;;11.40;70.30;;;;;;5096038;28;20059;-77
2022/02/13 04:55:50;;;;;;;4.75;1.33;;;11.30;70.10;;;;;;5114021;28;20024;-78
2022/02/13 04:58:18;;;;;;;7.68;1.63;;;11.30;70.10;;;;;;5079802;28;20024;-78
2022/02/13 05:00:45;;;;;;;8.38;1.67;;;11.30;70.10;;;;;;5096108;28;20031;-77
2022/02/13 05:03:12;;;;;;;5.03;1.70;;;11.30;70.10;;;;;;5095919;28;20032;-79
2022/02/13 05:05:39;;;;;;;4.95;1.52;;;11.30;70.10;;;;;;5113985;28;20023;-78
2022/02/13 05:08:05;;;;;;;4.82;1.40;;;11.30;70.10;;;;;;5096172;28;20035;-77
2022/02/13 05:10:31;;;;;;;4.18;1.73;;;11.30;70.10;;;;;;5113619;28;20387;-78
2022/02/13 05:12:57;;;;;;;5.22;1.60;;;11.30;70.20;;;;;;5114172;28;20039;-77
2022/02/13 05:15:23;;;;;;;3.83;1.40;;;11.30;70.20;;;;;;5095476;28;20056;-77
2022/02/13 05:17:49;;;;;;;5.18;1.83;;;11.30;70.20;;;;;;5113752;28;20193;-77
2022/02/13 05:20:15;;;;;;;8.82;2.58;;;11.30;70.20;;;;;;5095399;28;20585;-78
2022/02/13 05:22:42;;;;;;;6.80;1.60;;;11.30;70.20;;;;;;5095808;28;20475;-77
2022/02/13 05:25:08;;;;;;;5.55;1.70;;;11.30;70.20;;;;;;5113184;28;20500;-77
2022/02/13 05:27:35;;;;;;;6.40;1.80;;;11.30;70.20;;;;;;5114105;28;20506;-77
2022/02/13 05:30:01;;;;;;;5.43;1.85;;;11.30;70.20;;;;;;5095213;28;20043;-78
2022/02/13 05:32:28;;;;;;;7.40;1.90;;;11.30;70.20;;;;;;5113144;28;20027;-77
2022/02/13 05:34:54;;;;;;;5.68;2.08;;;11.30;70.20;;;;;;5113270;28;20053;-78
2022/02/13 05:37:20;;;;;;;6.90;1.63;;;11.30;70.30;;;;;;5113346;28;20024;-77
2022/02/13 05:39:46;;;;;;;7.93;1.83;;;11.30;70.30;;;;;;5095293;28;20035;-77
2022/02/13 05:42:12;;;;;;;8.23;2.33;;;11.30;70.20;;;;;;5095465;28;20500;-77
2022/02/13 05:44:39;;;;;;;5.80;1.50;;;11.30;70.30;;;;;;5112768;28;20036;-78
2022/02/13 05:47:06;;;;;;;6.20;2.17;;;11.30;70.20;;;;;;5094878;28;20044;-77
2022/02/13 05:49:32;;;;;;;4.38;1.20;;;11.30;70.20;;;;;;5071626;28;20059;-77
2022/02/13 05:51:58;;;;;;;2.85;1.30;;;11.30;70.20;;;;;;5054534;28;20028;-77
2022/02/13 05:54:24;;;;;;;5.07;1.60;;;11.30;70.20;;;;;;5088930;28;20381;-78
2022/02/13 05:56:50;;;;;;;6.10;1.27;;;11.30;70.20;;;;;;5090036;28;20032;-77
2022/02/13 05:59:16;;;;;;;4.38;1.25;;;11.30;70.20;;;;;;5105134;28;20146;-77
2022/02/13 06:01:43;;;;;;;4.18;1.73;;;11.20;70.00;;;;;;5091877;28;20550;-78
2022/02/13 06:04:09;;;;;;;5.32;1.63;;;11.20;70.00;;;;;;5111167;28;20518;-78
2022/02/13 06:06:35;;;;;;;8.45;2.17;;;11.30;70.20;;;;;;5113657;28;20088;-77
2022/02/13 06:09:01;;;;;;;5.93;1.20;;;11.30;70.20;;;;;;5112723;28;20882;-77
2022/02/13 06:11:27;;;;;;;6.70;1.95;;;11.20;70.00;;;;;;5094608;28;20100;-77
2022/02/13 06:13:53;;;;;;;4.00;1.92;;;11.20;70.00;;;;;;5094038;28;20173;-77
2022/02/13 06:16:19;;;;;;;4.22;2.13;;;11.20;70.00;;;;;;5091907;28;20070;-78
2022/02/13 06:18:45;;;;;;;5.15;1.52;;;11.20;70.00;;;;;;5110421;28;20035;-77
2022/02/13 06:21:11;;;;;;;5.40;1.40;;;11.20;70.00;;;;;;5075471;28;20020;-76
2022/02/13 06:23:37;;;;;;;6.63;1.65;;;11.20;70.00;;;;;;5109256;28;20395;-75
2022/02/13 06:26:03;;;;;;;6.50;2.15;;;11.20;70.00;;;;;;5091224;28;20031;-77
2022/02/13 06:28:29;;;;;;;8.13;1.67;;;11.20;70.00;;;;;;5109053;28;20031;-76
2022/02/13 06:30:55;;;;;;;6.88;1.50;;;11.20;70.00;;;;;;5090724;28;20027;-77
2022/02/13 06:33:21;;;;;;;6.90;1.88;;;11.30;70.10;;;;;;5090666;28;20031;-76
2022/02/13 06:35:48;;;;;;;4.82;1.63;;;11.20;70.00;;;;;;5073547;28;20034;-76
2022/02/13 06:38:15;;;;;;;7.78;2.65;;;11.20;70.00;;;;;;5089629;28;20027;-76
2022/02/13 06:40:42;;;;;;;6.22;1.23;;;11.20;69.90;;;;;;5108735;28;20028;-77
2022/02/13 06:43:08;;;;;;;8.00;1.85;;;11.20;69.90;;;;;;5073842;28;20042;-77
2022/02/13 06:45:36;;;;;;;5.70;1.58;;;11.20;69.90;;;;;;5090531;28;20027;-76
2022/02/13 06:48:04;;;;;;;3.80;1.40;;;11.30;70.00;;;;;;5108094;28;20047;-77
2022/02/13 06:50:31;;;;;;;4.07;1.77;;;11.20;69.80;;;;;;5107900;28;20114;-78
2022/02/13 06:52:57;;;;;;;6.07;1.48;;;11.20;69.80;;;;;;5090089;28;20486;-78
2022/02/13 06:55:23;;;;;;;8.25;1.85;;;11.20;69.80;;;;;;5108337;28;20058;-77
2022/02/13 06:57:52;;;;;;;5.22;1.35;;;11.30;70.00;;;;;;5108071;28;20696;-78
2022/02/13 07:00:19;;;;;;;7.00;1.90;;;11.30;70.00;;;;;;5108211;28;20062;-78
2022/02/13 07:02:46;;;;;;;3.65;1.85;;;11.30;69.90;;;;;;5090215;28;20034;-77
2022/02/13 07:05:12;;;;;;;9.88;1.80;;;11.20;69.80;;;;;;5108513;28;20039;-77
2022/02/13 07:07:39;;;;;;;6.55;2.95;;;11.20;69.80;;;;;;5090419;28;20031;-77
2022/02/13 07:10:10;;;;;;;4.57;1.50;;;11.30;69.90;;;;;;5108356;28;20480;-77
2022/02/13 07:12:37;;;;;;;6.75;1.58;;;11.20;69.80;;;;;;5100652;28;20387;-79
2022/02/13 07:15:06;;;;;;;7.72;2.75;;;11.20;69.70;;;;;;5102203;28;20031;-78
2022/02/13 07:17:33;;;;;;;5.90;1.95;;;11.20;69.70;;;;;;5099577;28;20030;-82
2022/02/13 07:20:00;;;;;;;3.72;1.40;;;11.20;69.70;;;;;;5073093;28;20039;-79
2022/02/13 07:22:26;;;;;;;5.10;1.50;;;11.20;69.70;;;;;;5107939;28;20073;-80
2022/02/13 07:24:52;;;;;;;7.55;1.83;;;11.20;69.70;;;;;;5108032;28;20547;-81
2022/02/13 07:27:18;;;;;;;7.10;1.40;;;11.20;69.70;;;;;;5092915;28;20472;-78
2022/02/13 07:29:44;;;;;;;6.55;1.40;;;11.20;69.70;;;;;;5107414;28;20476;-80
2022/02/13 07:32:10;;;;;;;7.82;2.10;;;11.20;69.70;;;;;;5090641;28;20032;-77
2022/02/13 07:34:37;;;;;;;4.90;1.45;;;11.20;69.70;;;;;;5110625;28;20570;-79
2022/02/13 07:37:03;;;;;;;6.72;1.88;;;11.20;69.70;;;;;;5092320;28;20123;-78
2022/02/13 07:39:34;;;;;;;4.70;1.23;;;11.20;69.60;;;;;;5109445;28;20494;-78
2022/02/13 07:42:00;;;;;;;5.88;1.40;;;11.20;69.60;;;;;;5109177;28;20043;-77
2022/02/13 07:44:27;;;;;;;5.50;1.40;;;11.20;70.10;;;;;;5090084;28;20032;-79
2022/02/13 07:46:53;;;;;;;4.55;1.50;;;11.20;69.60;;;;;;5089918;28;20127;-78
2022/02/13 07:49:20;;;;;;;5.28;1.63;;;11.20;69.60;;;;;;5091877;28;20038;-80
2022/02/13 07:51:46;;;;;;;6.18;2.00;;;11.20;69.60;;;;;;5093723;28;20028;-77
2022/02/13 07:54:13;;;;;;;6.72;1.55;;;11.20;69.60;;;;;;5111821;28;20126;-81
2022/02/13 07:56:39;;;;;;;6.72;2.15;;;11.20;69.60;;;;;;5094140;28;20494;-84
2022/02/13 07:59:05;;;;;;;3.33;1.33;;;11.30;69.70;;;;;;5112183;28;20023;-77
2022/02/13 08:01:31;;;;;;;6.22;1.58;;;11.30;69.70;;;;;;5112057;28;20023;-79
2022/02/13 08:03:57;;;;;;;3.97;1.00;;;11.30;69.80;;;;;;5111745;28;20118;-77
2022/02/13 08:06:23;;;;;;;5.13;1.67;;;11.30;70.00;;;;;;5111757;28;20035;-79
2022/02/13 08:08:50;;;;;;;5.50;1.88;;;11.40;70.20;;;;;;5110978;28;20034;-83
2022/02/13 08:11:17;;;;;;;5.63;1.95;;;11.40;70.10;;;;;;5094255;28;20024;-82
2022/02/13 08:13:44;;;;;;;4.85;2.00;;;11.40;70.10;;;;;;5089722;28;20040;-88
2022/02/13 08:16:10;;;;;;;8.38;1.63;;;11.50;70.20;;;;;;5076507;28;20511;-88
2022/02/13 08:18:39;;;;;;;10.02;2.70;;;11.40;70.00;;;;;;5072883;28;20063;-84
2022/02/13 08:21:08;;;;;;;7.78;1.50;;;11.40;70.00;;;;;;5080482;28;20032;-80
2022/02/13 08:23:36;;;;;;;3.53;1.20;;;11.50;70.20;;;;;;5084064;28;20040;-81
2022/02/13 08:26:03;;;;;;;6.90;1.45;;;11.50;70.30;;;;;;5092512;28;20020;-83
2022/02/13 08:28:31;;;;;;;7.03;2.35;;;11.50;70.50;;;;;;5107525;28;20035;-79
2022/02/13 08:30:58;;;;;;;5.03;1.70;;;11.50;70.70;;;;;;5100808;28;20020;-78
2022/02/13 08:33:24;;;;;;;3.10;1.10;;;11.60;71.00;;;;;;5089003;28;20458;-80
2022/02/13 08:35:51;;;;;;;7.45;1.55;;;11.60;71.10;;;;;;5102439;28;20109;-78
2022/02/13 08:38:17;;;;;;;4.18;1.38;;;11.70;71.40;;;;;;5103953;28;20051;-78
2022/02/13 08:40:43;;;;;;;5.97;2.38;;;11.70;71.40;;;;;;5092831;28;20150;-79
2022/02/13 08:43:09;;;;;;;5.00;1.75;;;11.70;71.50;;;;;;5110170;28;20068;-79
2022/02/13 08:45:37;;;;;;;6.65;2.40;;;11.80;71.80;;;;;;5109270;28;20043;-80
2022/02/13 08:48:03;;;;;;;7.43;1.42;;;11.80;71.90;;;;;;5109744;28;20103;-79
2022/02/13 08:50:30;;;;;;;8.68;1.50;;;11.80;71.90;;;;;;5110262;28;20804;-79
2022/02/13 08:52:56;;;;;;;3.38;1.38;;;11.80;72.00;;;;;;5109669;28;20043;-92
2022/02/13 08:55:23;;;;;;;9.77;1.83;;;11.80;72.10;;;;;;5094346;28;20027;-87
2022/02/13 08:57:50;;;;;;;3.63;1.25;;;11.80;72.20;;;;;;5111867;28;20114;-90
2022/02/13 09:00:17;;;;;;;8.93;1.65;;;11.80;72.70;;;;;;5109910;28;20081;-92
2022/02/13 09:02:43;;;;;;;4.47;1.77;;;11.80;72.30;;;;;;5111426;28;20027;-89
2022/02/13 09:05:10;;;;;;;4.50;1.88;;;11.80;72.40;;;;;;5102982;28;20043;-94
2022/02/13 09:07:38;;;;;;;4.30;1.30;;;11.80;72.50;;;;;;5094191;28;20023;-90
2022/02/13 09:10:10;;;;;;;5.05;1.42;;;11.80;72.50;;;;;;5091889;28;20034;-84
2022/02/13 09:12:37;;;;;;;5.85;2.05;;;11.80;72.60;;;;;;5056333;28;20495;-89
2022/02/13 09:15:04;;;;;;;5.15;1.33;;;11.80;72.70;;;;;;5073628;28;20036;-88
2022/02/13 09:17:31;;;;;;;3.47;2.53;;;11.90;72.80;;;;;;5056570;28;20028;-89
2022/02/13 09:19:57;;;;;;;8.15;1.75;;;11.90;72.80;;;;;;5093638;28;20171;-92
2022/02/13 09:22:23;;;;;;;5.95;1.80;;;11.90;72.80;;;;;;5115764;28;20084;-94
2022/02/13 09:24:49;;;;;;;5.20;1.52;;;11.90;72.80;;;;;;5095294;28;20088;-91
2022/02/13 09:27:15;;;;;;;4.28;1.73;;;11.80;72.60;;;;;;5095730;28;20026;-95
2022/02/13 09:29:41;;;;;;;4.13;2.13;;;11.80;72.60;;;;;;5102295;28;20066;-94
2022/02/13 09:32:09;;;;;;;6.55;2.45;;;11.80;72.60;;;;;;5094990;28;20440;-93
2022/02/13 09:34:35;;;;;;;12.20;3.95;;;11.80;72.60;;;;;;5111873;28;20057;-92
2022/02/13 09:37:02;;;;;;;18.90;4.70;;;11.80;72.60;;;;;;5109742;28;20046;-82
2022/02/13 09:39:29;;;;;;;12.48;3.25;;;11.70;72.50;;;;;;5107995;28;20118;-83
2022/02/13 09:41:56;;;;;;;12.95;4.55;;;11.70;72.50;;;;;;5109241;28;20024;-81
2022/02/13 09:44:23;;;;;;;19.70;5.80;;;11.70;72.50;;;;;;5109551;28;20027;-80
2022/02/13 09:46:50;;;;;;;8.13;3.47;;;11.80;72.80;;;;;;5109246;28;20054;-83
2022/02/13 09:49:22;;;;;;;11.15;3.08;;;11.80;72.80;;;;;;5109622;28;20521;-81
2022/02/13 09:51:49;;;;;;;9.13;4.47;;;11.80;72.80;;;;;;5110564;28;20507;-87
2022/02/13 09:54:15;;;;;;;15.07;6.50;;;11.80;72.80;;;;;;5107704;28;20517;-76
2022/02/13 09:56:43;;;;;;;8.02;2.97;;;11.90;73.00;;;;;;5099997;28;20115;-78
2022/02/13 09:59:10;;;;;;;6.90;2.88;;;11.90;73.00;;;;;;5090657;28;20063;-76
2022/02/13 10:01:47;;;;;;;9.60;3.10;;;11.90;73.00;;;;;;5090393;28;20941;-76
2022/02/13 10:04:14;;;;;;;8.52;3.28;;;12.00;73.10;;;;;;5108941;28;20059;-76
2022/02/13 10:06:41;;;;;;;9.38;3.70;;;12.10;73.20;;;;;;5108444;28;20036;-77
2022/02/13 10:09:09;;;;;;;6.75;2.70;;;12.10;73.20;;;;;;5108443;28;20165;-76
2022/02/13 10:11:39;;;;;;;9.40;2.67;;;12.20;73.30;;;;;;5108974;28;20031;-76
2022/02/13 10:14:12;;;;;;;9.90;3.25;;;12.30;73.90;;;;;;5090404;28;20039;-77
2022/02/13 10:16:38;;;;;;;8.88;2.30;;;12.40;73.40;;;;;;5109398;28;20027;-80
2022/02/13 10:19:09;;;;;;;8.68;2.40;;;12.40;73.30;;;;;;5090600;28;20022;-82
2022/02/13 10:21:50;;;;;;;6.55;2.22;;;12.50;73.60;;;;;;5109299;28;20412;-83
2022/02/13 10:24:32;;;;;;;6.75;2.70;;;12.50;73.40;;;;;;5109099;28;20511;-80
2022/02/13 10:27:04;;;;;;;8.95;2.83;;;12.50;73.30;;;;;;5108611;28;20115;-76
2022/02/13 10:29:32;;;;;;;7.97;3.03;;;12.60;73.40;;;;;;5107988;28;20074;-76
2022/02/13 10:32:19;;;;;;;5.32;2.35;;;12.60;73.40;;;;;;5089895;28;20051;-76
2022/02/13 10:35:05;;;;;;;10.73;3.47;;;12.60;73.50;;;;;;5107882;28;20040;-76
2022/02/13 10:37:40;;;;;;;9.30;4.43;;;12.60;73.50;;;;;;5089749;28;20057;-77
2022/02/13 10:40:11;;;;;;;4.68;2.20;;;12.70;73.60;;;;;;5107930;28;20269;-76
2022/02/13 10:42:37;;;;;;;4.30;2.00;;;12.60;73.50;;;;;;5108408;28;20031;-76
2022/02/13 10:45:28;;;;;;;7.70;1.63;;;12.70;73.50;;;;;;5089890;28;20026;-76
2022/02/13 10:47:58;;;;;;;5.47;2.13;;;12.70;73.60;;;;;;5086487;28;20184;-77
2022/02/13 10:50:26;;;;;;;7.50;2.45;;;12.70;73.60;;;;;;5086327;28;20414;-77
2022/02/13 10:52:58;;;;;;;7.65;2.63;;;12.70;73.60;;;;;;5087076;28;20450;-77
2022/02/13 10:55:29;;;;;;;7.28;1.92;;;12.70;73.60;;;;;;5090091;28;20502;-77
2022/02/13 10:57:57;;;;;;;6.75;1.77;;;12.70;73.60;;;;;;5089750;28;20492;-76
2022/02/13 11:00:26;;;;;;;7.63;1.83;;;12.70;73.60;;;;;;5089457;28;20028;-76
2022/02/13 11:02:54;;;;;;;3.00;1.75;;;12.70;74.10;;;;;;5089413;28;20042;-76
2022/02/13 11:05:22;;;;;;;5.30;2.15;;;12.70;73.60;;;;;;5088746;28;20020;-77
2022/02/13 11:07:51;;;;;;;7.25;3.10;;;12.70;73.60;;;;;;5083826;28;20043;-75
2022/02/13 11:10:24;;;;;;;4.15;1.75;;;12.80;73.70;;;;;;5080267;28;20031;-77
2022/02/13 11:12:54;;;;;;;5.03;1.70;;;12.80;73.70;;;;;;5088119;28;20039;-76
2022/02/13 11:15:32;;;;;;;3.83;1.90;;;12.80;73.60;;;;;;5085888;28;20123;-76
2022/02/13 11:18:03;;;;;;;7.03;1.85;;;12.80;73.60;;;;;;5083111;28;20183;-78
2022/02/13 11:20:30;;;;;;;6.93;1.52;;;12.80;73.50;;;;;;5081894;28;20453;-80
2022/02/13 11:23:17;;;;;;;3.20;1.55;;;12.90;73.70;;;;;;5085551;28;20016;-82
2022/02/13 11:25:50;;;;;;;5.10;1.58;;;12.90;73.70;;;;;;5085757;28;20310;-78
2022/02/13 11:28:19;;;;;;;4.47;1.33;;;12.90;73.60;;;;;;5065862;28;20033;-77
2022/02/13 11:30:49;;;;;;;3.70;1.40;;;13.00;73.70;;;;;;5069336;28;20115;-77
2022/02/13 11:33:31;;;;;;;3.58;1.33;;;13.00;73.70;;;;;;5064732;28;20044;-76
2022/02/13 11:36:02;;;;;;;3.97;1.80;;;13.00;73.70;;;;;;5066630;28;20052;-78
2022/02/13 11:38:53;;;;;;;6.13;1.40;;;13.10;73.80;;;;;;5080424;28;20025;-75
2022/02/13 11:41:39;;;;;;;3.15;1.20;;;13.10;74.30;;;;;;5064140;28;20046;-75
2022/02/13 11:44:06;;;;;;;4.18;1.30;;;13.10;73.70;;;;;;5085898;28;20066;-76
2022/02/13 11:46:36;;;;;;;5.85;2.22;;;13.10;73.70;;;;;;5078133;28;20044;-76
2022/02/13 11:49:12;;;;;;;2.47;1.10;;;13.20;73.90;;;;;;5076232;28;20542;-76
2022/02/13 11:51:52;;;;;;;2.53;1.08;;;13.20;73.90;;;;;;5082497;28;20040;-74
2022/02/13 11:54:44;;;;;;;4.45;1.38;;;13.30;74.30;;;;;;5065631;28;20037;-75
2022/02/13 11:57:19;;;;;;;3.20;1.15;;;13.40;74.60;;;;;;5066618;28;20032;-75
2022/02/13 12:00:02;;;;;;;4.22;1.38;;;13.50;74.50;;;;;;5084970;28;20043;-75
2022/02/13 12:02:30;;;;;;;3.92;1.50;;;13.70;74.70;;;;;;5085861;28;20024;-74
2022/02/13 12:05:17;;;;;;;2.53;1.17;;;13.80;74.60;;;;;;5083851;28;20480;-75
2022/02/13 12:07:43;;;;;;;3.92;1.65;;;13.80;74.60;;;;;;5085750;28;20039;-74
2022/02/13 12:10:18;;;;;;;6.18;2.53;;;13.80;74.40;;;;;;5085355;28;20182;-74
2022/02/13 12:12:45;;;;;;;4.70;1.80;;;13.90;74.60;;;;;;5086551;28;20119;-75
2022/02/13 12:15:16;;;;;;;2.92;1.50;;;13.90;74.50;;;;;;5086342;28;20403;-75
2022/02/13 12:17:42;;;;;;;5.15;1.50;;;14.00;74.70;;;;;;5086200;28;20498;-74
2022/02/13 12:20:13;;;;;;;2.60;1.40;;;14.00;74.70;;;;;;5080346;28;20020;-75
2022/02/13 12:22:40;;;;;;;4.72;1.98;;;14.00;74.80;;;;;;5078783;28;20387;-75
2022/02/13 12:25:09;;;;;;;4.47;1.88;;;14.00;74.80;;;;;;5079516;28;20020;-75
2022/02/13 12:27:39;;;;;;;4.97;2.22;;;14.10;75.00;;;;;;5098544;28;20062;-74
2022/02/13 12:30:08;;;;;;;5.25;2.60;;;14.10;75.00;;;;;;5081092;28;20061;-75
2022/02/13 12:32:36;;;;;;;4.80;2.88;;;14.10;75.10;;;;;;5085164;28;20047;-74
2022/02/13 12:35:05;;;;;;;4.68;2.22;;;14.10;75.10;;;;;;5086070;28;20068;-75
2022/02/13 12:37:43;;;;;;;3.30;2.03;;;14.20;75.30;;;;;;5080363;28;20386;-75
2022/02/13 12:40:13;;;;;;;4.07;1.85;;;14.20;75.40;;;;;;5079903;28;20431;-75
2022/02/13 12:42:42;;;;;;;5.07;3.28;;;14.20;75.40;;;;;;5077448;28;20039;-76
2022/02/13 12:45:11;;;;;;;10.63;3.40;;;14.20;75.50;;;;;;5080674;28;20036;-75
2022/02/13 12:47:40;;;;;;;8.05;3.50;;;14.30;76.00;;;;;;5094668;28;20406;-76